createdAt,value
2018-11-06T00:02:20.704Z,91.30
2018-11-06T00:04:48.314Z,91.20
2018-11-06T00:07:17.525Z,91.10
2018-11-06T00:09:44.864Z,90.70
2018-11-06T00:12:11.392Z,91.00
2018-11-06T00:14:40.692Z,91.20
2018-11-06T00:17:08.149Z,91.20
2018-11-06T00:19:35.885Z,91.50
2018-11-06T00:22:03.372Z,91.70
2018-11-06T00:24:31.775Z,91.30
2018-11-06T00:27:00.582Z,91.00
2018-11-06T00:29:27.898Z,91.10
2018-11-06T00:31:55.408Z,90.80
2018-11-06T00:34:24.350Z,90.90
2018-11-06T00:36:52.318Z,91.20
2018-11-06T00:39:18.782Z,91.10
2018-11-06T00:41:49.079Z,91.60
2018-11-06T00:44:18.667Z,92.30
2018-11-06T00:46:48.322Z,92.00
2018-11-06T00:49:16.280Z,91.80
2018-11-06T00:51:45.038Z,92.00
2018-11-06T00:54:12.960Z,92.00
2018-11-06T00:56:40.162Z,91.90
2018-11-06T00:59:08.038Z,92.00
2018-11-06T01:01:34.581Z,91.60
2018-11-06T01:04:05.750Z,92.00
2018-11-06T01:06:33.344Z,92.10
2018-11-06T01:09:02.301Z,91.70
2018-11-06T01:11:29.946Z,91.70
2018-11-06T01:13:57.049Z,92.20
2018-11-06T01:19:01.743Z,91.80
2018-11-06T01:21:28.915Z,91.90
2018-11-06T01:23:57.068Z,92.10
2018-11-06T01:26:25.344Z,91.90
2018-11-06T01:28:53.835Z,91.70
2018-11-06T01:34:03.662Z,92.30
2018-11-06T01:36:34.041Z,92.40
2018-11-06T01:39:02.537Z,92.90
2018-11-06T01:41:30.377Z,92.40
2018-11-06T01:43:57.509Z,92.50
2018-11-06T01:46:25.034Z,92.10
2018-11-06T01:48:52.968Z,91.90
2018-11-06T01:51:21.092Z,91.50
2018-11-06T01:53:48.652Z,91.40
2018-11-06T01:58:51.172Z,91.30
2018-11-06T02:01:18.657Z,91.70
2018-11-06T02:03:46.445Z,92.00
2018-11-06T02:06:12.976Z,91.90
2018-11-06T02:08:42.275Z,92.70
2018-11-06T02:11:09.778Z,91.90
2018-11-06T02:16:11.594Z,91.20
2018-11-06T02:18:41.054Z,91.30
2018-11-06T02:21:08.816Z,91.10
2018-11-06T02:23:36.304Z,91.70
2018-11-06T02:26:04.290Z,91.60
2018-11-06T02:28:31.505Z,91.90
2018-11-06T02:31:00.691Z,91.60
2018-11-06T02:33:27.687Z,91.80
2018-11-06T02:35:56.629Z,91.90
2018-11-06T02:38:23.901Z,91.90
2018-11-06T02:40:51.441Z,91.80
2018-11-06T02:43:17.957Z,91.60
2018-11-06T02:45:45.068Z,91.30
2018-11-06T02:48:13.008Z,91.40
2018-11-06T02:50:40.992Z,91.90
2018-11-06T02:53:09.270Z,91.50
2018-11-06T02:55:36.168Z,91.70
2018-11-06T02:58:04.358Z,91.80
2018-11-06T03:00:31.724Z,92.20
2018-11-06T03:05:31.563Z,92.00
2018-11-06T03:07:58.130Z,92.10
2018-11-06T03:10:25.970Z,92.00
2018-11-06T03:12:53.235Z,91.70
2018-11-06T03:15:20.595Z,91.70
2018-11-06T03:17:47.849Z,91.70
2018-11-06T03:22:46.751Z,91.70
2018-11-06T03:25:13.655Z,92.00
2018-11-06T03:27:40.954Z,92.30
2018-11-06T03:30:08.847Z,92.10
2018-11-06T03:32:37.881Z,91.80
2018-11-06T03:35:05.739Z,91.90
2018-11-06T03:40:04.917Z,91.90
2018-11-06T03:42:32.824Z,91.80
2018-11-06T03:44:59.701Z,91.70
2018-11-06T03:47:27.272Z,91.70
2018-11-06T03:49:54.470Z,92.00
2018-11-06T03:52:22.492Z,91.80
2018-11-06T03:54:50.141Z,92.30
2018-11-06T03:57:18.550Z,92.30
2018-11-06T03:59:46.185Z,92.30
2018-11-06T04:02:15.022Z,92.20
2018-11-06T04:04:44.518Z,92.40
2018-11-06T04:07:13.647Z,92.40
2018-11-06T04:09:41.550Z,92.30
2018-11-06T04:12:09.115Z,92.40
2018-11-06T04:14:36.674Z,92.40
2018-11-06T04:17:03.826Z,92.20
2018-11-06T04:19:31.696Z,92.50
2018-11-06T04:29:34.263Z,92.50
2018-11-06T04:32:00.869Z,92.30
2018-11-06T04:34:27.421Z,92.50
2018-11-06T04:36:53.983Z,92.40
2018-11-06T04:39:20.449Z,92.50
2018-11-06T04:41:46.961Z,92.70
2018-11-06T04:44:13.446Z,92.30
2018-11-06T04:46:39.956Z,93.00
2018-11-06T04:49:06.460Z,92.80
2018-11-06T04:51:32.993Z,92.60
2018-11-06T04:53:59.525Z,92.20
2018-11-06T04:56:26.036Z,92.00
2018-11-06T05:01:25.321Z,92.60
2018-11-06T05:03:51.812Z,92.00
2018-11-06T05:06:18.246Z,91.80
2018-11-06T05:08:46.114Z,91.80
2018-11-06T05:11:12.592Z,91.60
2018-11-06T05:13:39.061Z,91.80
2018-11-06T05:16:05.576Z,91.80
2018-11-06T05:18:32.113Z,91.50
2018-11-06T05:20:58.567Z,91.90
2018-11-06T05:23:25.126Z,91.60
2018-11-06T05:25:51.609Z,92.10
2018-11-06T05:28:18.198Z,91.70
2018-11-06T05:30:44.655Z,91.60
2018-11-06T05:33:11.195Z,91.50
2018-11-06T05:35:37.670Z,91.60
2018-11-06T05:38:04.236Z,91.70
2018-11-06T05:40:30.771Z,92.30
2018-11-06T05:42:59.484Z,92.30
2018-11-06T05:45:26.032Z,92.40
2018-11-06T05:47:52.620Z,92.40
2018-11-06T05:50:19.088Z,91.90
2018-11-06T05:52:45.572Z,92.40
2018-11-06T05:55:12.047Z,92.30
2018-11-06T05:57:38.593Z,92.10
2018-11-06T06:00:05.222Z,92.20
2018-11-06T06:02:31.748Z,92.20
2018-11-06T06:04:58.245Z,92.00
2018-11-06T06:07:25.740Z,92.20
2018-11-06T06:09:52.341Z,91.60
2018-11-06T06:12:18.859Z,92.20
2018-11-06T06:17:17.916Z,92.50
2018-11-06T06:19:45.162Z,93.50
2018-11-06T06:22:11.771Z,93.50
2018-11-06T06:24:38.278Z,93.20
2018-11-06T06:27:04.732Z,93.50
2018-11-06T06:29:31.181Z,93.30
2018-11-06T06:34:30.298Z,92.30
2018-11-06T06:36:56.845Z,92.20
2018-11-06T06:39:23.322Z,91.70
2018-11-06T06:41:49.789Z,92.10
2018-11-06T06:44:16.264Z,92.50
2018-11-06T06:46:42.789Z,92.90
2018-11-06T06:49:09.302Z,92.40
2018-11-06T06:51:35.809Z,92.60
2018-11-06T06:54:02.474Z,92.60
2018-11-06T06:56:29.003Z,92.50
2018-11-06T06:58:56.078Z,92.70
2018-11-06T07:01:22.543Z,92.20
2018-11-06T07:06:22.508Z,92.00
2018-11-06T07:08:48.956Z,92.10
2018-11-06T07:11:15.405Z,93.20
2018-11-06T07:13:44.347Z,93.10
2018-11-06T07:16:13.126Z,92.70
2018-11-06T07:18:40.555Z,91.90
2018-11-06T07:23:39.430Z,91.30
2018-11-06T07:26:05.902Z,91.30
2018-11-06T07:28:32.596Z,91.90
2018-11-06T07:30:59.956Z,91.70
2018-11-06T07:33:26.420Z,91.60
2018-11-06T07:35:53.019Z,91.80
2018-11-06T07:38:19.516Z,92.00
2018-11-06T07:40:46.032Z,92.40
2018-11-06T07:43:12.854Z,92.10
2018-11-06T07:45:39.564Z,92.50
2018-11-06T07:48:06.341Z,92.60
2018-11-06T07:50:33.072Z,91.70
2018-11-06T07:52:59.726Z,92.00
2018-11-06T07:55:26.256Z,92.50
2018-11-06T07:57:52.813Z,93.50
2018-11-06T08:02:52.073Z,92.20
2018-11-06T08:05:19.224Z,92.30
2018-11-06T08:07:45.710Z,92.30
2018-11-06T08:10:12.305Z,92.00
2018-11-06T08:12:38.782Z,92.10
2018-11-06T08:15:06.379Z,92.60
2018-11-06T08:17:33.477Z,92.70
2018-11-06T08:19:59.955Z,92.60
2018-11-06T08:22:26.531Z,92.40
2018-11-06T08:24:53.148Z,92.50
2018-11-06T08:27:19.660Z,92.10
2018-11-06T08:29:46.606Z,91.40
2018-11-06T08:32:13.484Z,91.30
2018-11-06T08:34:44.726Z,91.90
2018-11-06T08:37:11.518Z,91.40
2018-11-06T08:39:38.168Z,91.50
2018-11-06T08:42:05.472Z,92.00
2018-11-06T08:47:03.677Z,90.90
2018-11-06T08:49:30.405Z,91.10
2018-11-06T08:51:56.897Z,92.40
2018-11-06T08:54:23.930Z,92.30
2018-11-06T08:56:50.968Z,91.40
2018-11-06T08:59:17.491Z,91.30
2018-11-06T09:01:44.062Z,91.40
2018-11-06T09:04:10.569Z,91.20
2018-11-06T09:06:37.391Z,91.10
2018-11-06T09:09:03.849Z,91.50
2018-11-06T09:11:30.715Z,91.30
2018-11-06T09:13:57.163Z,90.60
2018-11-06T09:16:23.840Z,90.00
2018-11-06T09:18:50.305Z,90.20
2018-11-06T09:21:16.917Z,90.30
2018-11-06T09:23:43.372Z,90.30
2018-11-06T09:26:09.901Z,90.30
2018-11-06T09:28:36.432Z,90.10
2018-11-06T09:31:03.810Z,90.00
2018-11-06T09:33:30.451Z,90.50
2018-11-06T09:35:57.104Z,90.00
2018-11-06T09:38:23.595Z,90.20
2018-11-06T09:40:50.108Z,90.10
2018-11-06T09:43:16.653Z,90.60
2018-11-06T09:45:43.122Z,90.20
2018-11-06T09:48:09.776Z,88.60
2018-11-06T09:50:37.120Z,87.50
2018-11-06T09:53:03.740Z,88.00
2018-11-06T09:55:30.276Z,86.20
2018-11-06T09:57:56.749Z,87.70
2018-11-06T10:00:23.371Z,87.90
2018-11-06T10:02:50.096Z,89.00
2018-11-06T10:05:18.045Z,89.40
2018-11-06T10:07:44.660Z,90.30
2018-11-06T10:10:11.216Z,90.00
2018-11-06T10:12:38.624Z,88.70
2018-11-06T10:15:05.145Z,88.10
2018-11-06T10:17:31.591Z,88.50
2018-11-06T10:19:58.836Z,87.30
2018-11-06T10:22:25.473Z,88.80
2018-11-06T10:24:52.235Z,87.10
2018-11-06T10:27:18.700Z,86.20
2018-11-06T10:29:45.192Z,88.10
2018-11-06T10:32:11.881Z,87.70
2018-11-06T10:34:38.691Z,86.20
2018-11-06T10:37:05.253Z,85.70
2018-11-06T10:39:32.007Z,85.40
2018-11-06T10:41:58.539Z,86.00
2018-11-06T10:44:25.031Z,87.80
2018-11-06T10:46:52.155Z,87.20
2018-11-06T10:49:19.203Z,86.80
2018-11-06T10:51:45.705Z,86.60
2018-11-06T10:54:12.299Z,87.80
2018-11-06T10:56:38.818Z,87.80
2018-11-06T10:59:06.364Z,87.00
2018-11-06T11:01:33.117Z,87.60
2018-11-06T11:03:59.715Z,87.80
2018-11-06T11:06:26.929Z,86.70
2018-11-06T11:08:53.455Z,86.70
2018-11-06T11:11:20.004Z,86.80
2018-11-06T11:13:46.608Z,88.20
2018-11-06T11:16:19.802Z,89.80
2018-11-06T11:18:47.608Z,87.00
2018-11-06T11:21:14.107Z,87.60
2018-11-06T11:23:40.581Z,88.30
2018-11-06T11:26:08.111Z,86.40
2018-11-06T11:28:34.586Z,86.00
2018-11-06T11:31:01.048Z,84.40
2018-11-06T11:33:27.742Z,86.70
2018-11-06T11:35:54.249Z,86.90
2018-11-06T11:38:21.006Z,85.50
2018-11-06T11:40:48.769Z,84.40
2018-11-06T11:43:15.307Z,84.60
2018-11-06T11:45:42.031Z,87.20
2018-11-06T11:48:08.677Z,86.70
2018-11-06T11:50:35.138Z,86.60
2018-11-06T11:53:01.658Z,86.00
2018-11-06T11:58:00.612Z,85.10
2018-11-06T12:00:27.083Z,85.70
2018-11-06T12:02:53.511Z,85.20
2018-11-06T12:05:20.080Z,85.70
2018-11-06T12:07:46.568Z,84.90
2018-11-06T12:10:13.346Z,84.70
2018-11-06T12:12:39.841Z,85.00
2018-11-06T12:15:06.280Z,85.80
2018-11-06T12:17:32.750Z,86.80
2018-11-06T12:25:03.620Z,85.80
2018-11-06T12:27:30.169Z,86.30
2018-11-06T12:29:56.674Z,86.80
2018-11-06T12:32:23.200Z,85.10
2018-11-06T12:34:50.451Z,86.00
2018-11-06T12:37:17.727Z,85.80
2018-11-06T12:39:44.321Z,85.10
2018-11-06T12:42:10.812Z,84.10
2018-11-06T12:44:37.455Z,84.10
2018-11-06T12:47:07.393Z,84.70
2018-11-06T12:49:33.962Z,86.10
2018-11-06T12:52:00.454Z,85.10
2018-11-06T12:54:27.157Z,85.40
2018-11-06T12:56:53.930Z,87.60
2018-11-06T12:59:20.540Z,88.30
2018-11-06T13:04:18.892Z,87.40
2018-11-06T13:06:45.361Z,87.50
2018-11-06T13:09:12.050Z,86.70
2018-11-06T13:11:39.106Z,86.80
2018-11-06T13:14:05.920Z,84.60
2018-11-06T13:16:32.395Z,86.10
2018-11-06T13:18:58.865Z,84.40
2018-11-06T13:21:25.381Z,84.50
2018-11-06T13:23:52.803Z,85.80
2018-11-06T13:26:19.454Z,86.10
2018-11-06T13:28:46.214Z,85.20
2018-11-06T13:31:12.863Z,85.80
2018-11-06T13:33:40.469Z,86.00
2018-11-06T13:36:07.011Z,87.00
2018-11-06T13:38:33.518Z,86.70
2018-11-06T13:41:00.045Z,86.90
2018-11-06T13:43:26.589Z,87.50
2018-11-06T13:45:53.283Z,87.50
2018-11-06T13:48:19.901Z,87.80
2018-11-06T13:50:46.438Z,87.70
2018-11-06T13:53:12.967Z,88.00
2018-11-06T13:58:11.563Z,88.30
2018-11-06T14:00:38.054Z,87.20
2018-11-06T14:03:04.750Z,87.10
2018-11-06T14:05:31.378Z,86.90
2018-11-06T14:07:58.123Z,87.20
2018-11-06T14:10:24.935Z,87.70
2018-11-06T14:12:54.672Z,86.40
2018-11-06T14:15:21.217Z,87.40
2018-11-06T14:20:24.262Z,87.70
2018-11-06T14:22:50.740Z,88.60
2018-11-06T14:25:17.397Z,87.80
2018-11-06T14:27:43.934Z,87.90
2018-11-06T14:30:10.461Z,87.20
2018-11-06T14:32:36.909Z,87.70
2018-11-06T14:35:03.502Z,86.10
2018-11-06T14:37:30.817Z,86.60
2018-11-06T14:39:57.288Z,87.20
2018-11-06T14:42:23.894Z,87.10
2018-11-06T14:44:50.589Z,86.70
2018-11-06T14:47:17.092Z,86.30
2018-11-06T14:49:43.653Z,85.60
2018-11-06T14:52:10.257Z,86.30
2018-11-06T14:54:36.762Z,85.90
2018-11-06T14:57:03.234Z,86.20
2018-11-06T14:59:29.683Z,87.00
2018-11-06T15:01:56.110Z,86.60
2018-11-06T15:04:22.622Z,88.80
2018-11-06T15:06:49.072Z,88.20
2018-11-06T15:09:15.636Z,87.80
2018-11-06T15:11:42.127Z,87.90
2018-11-06T15:14:08.676Z,87.80
2018-11-06T15:16:35.216Z,87.60
2018-11-06T15:19:01.791Z,87.80
2018-11-06T15:21:28.357Z,88.70
2018-11-06T15:23:55.005Z,88.50
2018-11-06T15:26:22.596Z,87.40
2018-11-06T15:28:49.248Z,88.30
2018-11-06T15:31:15.850Z,88.60
2018-11-06T15:33:42.702Z,87.90
2018-11-06T15:36:09.508Z,87.30
2018-11-06T15:38:36.078Z,87.30
2018-11-06T15:41:03.929Z,87.80
2018-11-06T15:43:30.593Z,87.70
2018-11-06T15:45:57.194Z,87.20
2018-11-06T15:48:23.701Z,88.00
2018-11-06T15:50:50.332Z,87.90
2018-11-06T15:53:17.035Z,87.40
2018-11-06T15:55:43.539Z,88.10
2018-11-06T15:58:10.233Z,87.20
2018-11-06T16:00:36.845Z,89.00
2018-11-06T16:03:03.371Z,89.20
2018-11-06T16:05:29.913Z,89.00
2018-11-06T16:07:56.437Z,88.00
2018-11-06T16:10:23.338Z,88.40
2018-11-06T16:12:49.858Z,88.30
2018-11-06T16:15:16.352Z,88.80
2018-11-06T16:17:43.037Z,88.40
2018-11-06T16:20:09.649Z,88.40
2018-11-06T16:22:36.137Z,88.00
2018-11-06T16:25:03.681Z,89.40
2018-11-06T16:27:30.277Z,89.80
2018-11-06T16:29:56.771Z,89.80
2018-11-06T16:32:23.497Z,90.00
2018-11-06T16:34:49.950Z,90.20
2018-11-06T16:37:16.444Z,89.60
2018-11-06T16:39:43.392Z,88.70
2018-11-06T16:42:09.951Z,88.80
2018-11-06T16:44:36.425Z,89.10
2018-11-06T16:47:02.944Z,88.80
2018-11-06T16:49:29.495Z,89.10
2018-11-06T16:51:55.936Z,88.80
2018-11-06T16:54:22.403Z,89.00
2018-11-06T16:56:48.941Z,89.10
2018-11-06T16:59:15.616Z,89.30
2018-11-06T17:01:42.156Z,89.60
2018-11-06T17:04:08.657Z,90.00
2018-11-06T17:06:35.250Z,89.70
2018-11-06T17:09:02.064Z,89.50
2018-11-06T17:11:28.536Z,89.80
2018-11-06T17:13:55.010Z,88.70
2018-11-06T17:16:21.762Z,89.20
2018-11-06T17:18:48.224Z,90.10
2018-11-06T17:21:14.740Z,90.10
2018-11-06T17:23:41.328Z,90.10
2018-11-06T17:26:07.888Z,90.10
2018-11-06T17:28:34.348Z,90.50
2018-11-06T17:31:00.844Z,90.50
2018-11-06T17:33:27.356Z,90.40
2018-11-06T17:35:54.041Z,90.70
2018-11-06T17:38:20.800Z,90.50
2018-11-06T17:40:47.249Z,90.40
2018-11-06T17:43:13.756Z,90.40
2018-11-06T17:45:40.247Z,90.40
2018-11-06T17:48:06.745Z,90.40
2018-11-06T17:50:33.239Z,91.20
2018-11-06T17:52:59.737Z,91.60
2018-11-06T17:55:26.277Z,91.20
2018-11-06T17:57:54.320Z,90.70
2018-11-06T18:00:20.890Z,90.20
2018-11-06T18:02:47.355Z,90.40
2018-11-06T18:05:13.835Z,90.20
2018-11-06T18:07:40.404Z,90.30
2018-11-06T18:10:06.878Z,90.20
2018-11-06T18:12:33.340Z,90.20
2018-11-06T18:14:59.905Z,90.80
2018-11-06T18:17:26.408Z,91.10
2018-11-06T18:19:52.919Z,91.20
2018-11-06T18:22:19.409Z,91.10
2018-11-06T18:24:45.878Z,91.20
2018-11-06T18:27:12.495Z,91.00
2018-11-06T18:29:40.540Z,91.30
2018-11-06T18:32:07.378Z,91.30
2018-11-06T18:34:33.993Z,91.00
2018-11-06T18:37:00.628Z,91.40
2018-11-06T18:39:27.166Z,91.20
2018-11-06T18:41:54.999Z,90.90
2018-11-06T18:44:22.074Z,90.70
2018-11-06T18:46:49.274Z,91.00
2018-11-06T18:49:15.814Z,90.70
2018-11-06T18:51:42.352Z,90.80
2018-11-06T18:54:08.868Z,90.90
2018-11-06T18:56:35.732Z,91.00
2018-11-06T18:59:02.429Z,90.90
2018-11-06T19:01:28.896Z,90.70
2018-11-06T19:03:55.554Z,90.70
2018-11-06T19:06:22.136Z,90.60
2018-11-06T19:08:49.181Z,90.30
2018-11-06T19:11:15.776Z,90.30
2018-11-06T19:13:42.278Z,90.30
2018-11-06T19:16:09.296Z,90.70
2018-11-06T19:18:35.756Z,91.80
2018-11-06T19:21:02.241Z,91.50
2018-11-06T19:23:28.707Z,91.70
2018-11-06T19:25:56.271Z,91.40
2018-11-06T19:28:22.736Z,91.50
2018-11-06T19:30:49.347Z,91.30
2018-11-06T19:33:15.912Z,92.10
2018-11-06T19:35:42.426Z,92.20
2018-11-06T19:38:08.890Z,91.80
2018-11-06T19:40:35.746Z,92.00
2018-11-06T19:43:02.637Z,91.80
2018-11-06T19:45:29.323Z,92.40
2018-11-06T19:47:55.978Z,92.90
2018-11-06T19:50:28.582Z,93.00
2018-11-06T19:52:56.241Z,93.10
2018-11-06T19:55:22.848Z,92.80
2018-11-06T19:57:49.997Z,92.80
2018-11-06T20:00:16.642Z,93.10
2018-11-06T20:02:43.210Z,93.10
2018-11-06T20:05:10.085Z,93.30
2018-11-06T20:07:36.737Z,93.10
2018-11-06T20:10:03.248Z,92.80
2018-11-06T20:12:29.715Z,93.10
2018-11-06T20:14:56.349Z,92.90
2018-11-06T20:17:22.902Z,92.30
2018-11-06T20:19:49.519Z,92.20
2018-11-06T20:22:16.044Z,92.70
2018-11-06T20:24:42.584Z,92.90
2018-11-06T20:27:09.115Z,93.40
2018-11-06T20:29:35.770Z,92.80
2018-11-06T20:32:02.361Z,93.20
2018-11-06T20:34:28.957Z,92.80
2018-11-06T20:36:56.214Z,92.10
2018-11-06T20:39:23.737Z,92.60
2018-11-06T20:41:50.511Z,92.50
2018-11-06T20:44:17.003Z,93.60
2018-11-06T20:46:43.499Z,93.60
2018-11-06T20:49:09.988Z,93.40
2018-11-06T20:51:36.519Z,93.90
2018-11-06T20:54:03.028Z,93.90
2018-11-06T20:56:29.551Z,93.80
2018-11-06T20:58:56.894Z,93.70
2018-11-06T21:01:24.020Z,93.50
2018-11-06T21:03:50.604Z,93.40
2018-11-06T21:06:17.147Z,93.50
2018-11-06T21:08:43.691Z,93.10
2018-11-06T21:11:10.175Z,92.60
2018-11-06T21:13:36.884Z,92.50
2018-11-06T21:16:03.494Z,92.60
2018-11-06T21:18:30.262Z,92.40
2018-11-06T21:20:56.936Z,92.40
2018-11-06T21:23:23.411Z,92.30
2018-11-06T21:25:50.753Z,92.30
2018-11-06T21:28:17.209Z,92.20
2018-11-06T21:30:43.718Z,92.20
2018-11-06T21:33:10.207Z,92.40
2018-11-06T21:35:36.801Z,92.30
2018-11-06T21:38:03.324Z,92.30
2018-11-06T21:40:29.783Z,92.00
2018-11-06T21:42:56.753Z,92.10
2018-11-06T21:45:23.360Z,92.00
2018-11-06T21:47:50.075Z,92.30
2018-11-06T21:50:16.723Z,92.60
2018-11-06T21:52:43.248Z,92.80
2018-11-06T21:55:09.754Z,92.90
2018-11-06T21:57:36.280Z,92.30
2018-11-06T22:00:02.914Z,92.00
2018-11-06T22:02:29.588Z,91.60
2018-11-06T22:04:56.969Z,91.20
2018-11-06T22:07:23.448Z,91.40
2018-11-06T22:09:50.009Z,91.40
2018-11-06T22:12:16.620Z,91.70
2018-11-06T22:14:43.291Z,92.30
2018-11-06T22:17:09.751Z,92.20
2018-11-06T22:19:36.194Z,91.70
2018-11-06T22:22:02.682Z,91.80
2018-11-06T22:24:29.380Z,91.40
2018-11-06T22:26:55.956Z,91.50
2018-11-06T22:29:22.463Z,91.20
2018-11-06T22:31:50.942Z,91.50
2018-11-06T22:34:18.421Z,92.10
2018-11-06T22:36:45.046Z,92.10
2018-11-06T22:39:11.739Z,91.70
2018-11-06T22:41:38.221Z,91.70
2018-11-06T22:44:04.805Z,91.60
2018-11-06T22:46:31.458Z,91.50
2018-11-06T22:48:58.013Z,91.70
2018-11-06T22:51:24.535Z,92.20
2018-11-06T22:53:51.038Z,91.60
2018-11-06T22:56:17.530Z,91.90
2018-11-06T22:58:44.040Z,92.00
2018-11-06T23:01:10.601Z,91.80
2018-11-06T23:03:37.180Z,91.80
2018-11-06T23:06:03.934Z,91.80
2018-11-06T23:08:30.553Z,92.30
2018-11-06T23:10:57.586Z,92.20
2018-11-06T23:13:24.112Z,91.90
2018-11-06T23:15:50.592Z,91.80
2018-11-06T23:18:17.093Z,91.60
2018-11-06T23:20:43.645Z,91.70
2018-11-06T23:23:10.088Z,92.20
2018-11-06T23:25:36.608Z,91.90
2018-11-06T23:28:03.107Z,91.80
2018-11-06T23:30:29.630Z,91.40
2018-11-06T23:32:57.273Z,91.10
2018-11-06T23:35:23.928Z,91.60
2018-11-06T23:37:50.549Z,92.10
2018-11-06T23:40:17.568Z,92.60
2018-11-06T23:42:44.291Z,93.00
2018-11-06T23:45:10.839Z,93.10
2018-11-06T23:47:37.366Z,92.80
2018-11-06T23:50:03.847Z,92.70
2018-11-06T23:52:30.806Z,92.30
2018-11-06T23:54:58.147Z,92.00
2018-11-06T23:57:24.667Z,91.60
2018-11-06T23:59:51.113Z,91.30
